Time;durP1;ratioP1;P1;durP2;ratioP2;P2;SDS_P1;SDS_P2;PMS_P1;PMS_P2;Temp;Humidity;BMP_temperature;BMP_pressure;BME280_temperature;BME280_humidity;BME280_pressure;Samples;Min_cycle;Max_cycle;Signal;HPM_P1;HPM_P2
2021/03/03 00:00:29;;;;;;;68.73;32.67;;;;;;;4.86;61.70;100460.75;124274;1105;104271;-66
2021/03/03 00:03:11;;;;;;;71.87;34.00;;;;;;;4.80;61.74;100460.91;124148;1105;104181;-66
2021/03/03 00:05:38;;;;;;;73.42;34.60;;;;;;;4.77;61.94;100458.34;124189;1105;104239;-66
2021/03/03 00:08:06;;;;;;;69.93;34.43;;;;;;;4.74;61.99;100456.64;124084;1105;104258;-66
2021/03/03 00:10:34;;;;;;;69.80;33.08;;;;;;;4.72;61.68;100462.87;124093;1105;104220;-66
2021/03/03 00:13:02;;;;;;;77.60;36.97;;;;;;;4.68;61.70;100463.84;124195;1105;104280;-67
2021/03/03 00:15:30;;;;;;;64.87;33.10;;;;;;;4.65;61.86;100462.17;124336;1105;104282;-66
2021/03/03 00:17:57;;;;;;;71.43;35.23;;;;;;;4.61;61.83;100460.52;125192;1105;104213;-65
2021/03/03 00:20:25;;;;;;;73.80;36.27;;;;;;;4.62;62.08;100455.19;125007;1105;104168;-66
2021/03/03 00:22:53;;;;;;;70.17;33.80;;;;;;;4.62;62.02;100449.08;124233;1105;104217;-65
2021/03/03 00:25:20;;;;;;;68.28;35.13;;;;;;;4.62;62.16;100452.55;124130;1105;104187;-66
2021/03/03 00:27:47;;;;;;;70.12;33.55;;;;;;;4.66;62.21;100444.58;124194;1105;104664;-67
2021/03/03 00:30:18;;;;;;;72.70;34.87;;;;;;;4.67;61.97;100446.30;124129;1105;104178;-66
2021/03/03 00:32:47;;;;;;;71.33;33.77;;;;;;;4.67;62.16;100439.28;124242;1106;104156;-66
2021/03/03 00:35:15;;;;;;;65.37;33.13;;;;;;;4.71;62.10;100440.90;124267;1105;104187;-66
2021/03/03 00:37:44;;;;;;;70.03;34.63;;;;;;;4.73;61.85;100444.36;124329;1105;104206;-66
2021/03/03 00:40:13;;;;;;;71.22;32.83;;;;;;;4.72;61.97;100445.27;124232;1105;104217;-66
2021/03/03 00:42:40;;;;;;;71.03;34.10;;;;;;;4.68;61.95;100442.77;124136;1105;104246;-66
2021/03/03 00:45:09;;;;;;;68.13;32.70;;;;;;;4.62;62.06;100449.08;124057;1105;104697;-66
2021/03/03 00:47:37;;;;;;;74.55;33.45;;;;;;;4.57;61.91;100440.41;124083;1105;104261;-67
2021/03/03 00:50:07;;;;;;;70.60;33.53;;;;;;;4.54;62.33;100435.22;124143;1105;104165;-67
2021/03/03 00:52:34;;;;;;;67.50;32.70;;;;;;;4.53;62.35;100442.24;124205;1105;104162;-66
2021/03/03 00:55:01;;;;;;;69.25;31.87;;;;;;;4.52;61.86;100443.15;124102;1105;104178;-65
2021/03/03 00:57:28;;;;;;;71.43;35.20;;;;;;;4.49;62.26;100437.95;124184;1105;104383;-65
2021/03/03 00:59:55;;;;;;;71.60;34.63;;;;;;;4.47;61.99;100432.74;124185;1105;104159;-65
2021/03/03 01:02:22;;;;;;;71.43;34.77;;;;;;;4.47;62.31;100431.89;124080;1105;104363;-65
2021/03/03 01:04:50;;;;;;;68.95;33.88;;;;;;;4.47;62.10;100429.25;124420;1104;104189;-65
2021/03/03 01:07:17;;;;;;;70.10;34.07;;;;;;;4.45;61.98;100431.91;124202;1105;104165;-65
2021/03/03 01:09:49;;;;;;;68.40;34.17;;;;;;;4.46;62.11;100441.55;124247;1105;104248;-65
2021/03/03 01:12:16;;;;;;;69.63;33.40;;;;;;;4.46;62.48;100430.16;124291;1105;104262;-65
2021/03/03 01:14:42;;;;;;;66.97;32.30;;;;;;;4.41;62.30;100435.53;124181;1105;104405;-65
2021/03/03 01:17:12;;;;;;;70.60;33.35;;;;;;;4.39;61.98;100439.97;124157;1105;104187;-65
2021/03/03 01:19:39;;;;;;;69.50;32.75;;;;;;;4.36;62.47;100428.66;125091;1104;104261;-65
2021/03/03 01:22:07;;;;;;;64.70;32.33;;;;;;;4.31;62.00;100432.27;124574;1105;104213;-68
2021/03/03 01:24:36;;;;;;;68.97;32.13;;;;;;;4.29;62.11;100436.70;124342;1105;104258;-66
2021/03/03 01:27:03;;;;;;;69.43;34.33;;;;;;;4.27;62.32;100435.03;124170;1105;104300;-66
2021/03/03 01:29:30;;;;;;;64.47;31.90;;;;;;;4.22;62.50;100435.12;124052;1105;104273;-66
2021/03/03 01:31:57;;;;;;;67.27;32.90;;;;;;;4.19;62.67;100431.71;124284;1105;104261;-66
2021/03/03 01:34:26;;;;;;;65.73;32.17;;;;;;;4.15;62.56;100430.90;124180;1105;104255;-65
2021/03/03 01:36:58;;;;;;;64.63;30.43;;;;;;;4.14;62.40;100431.80;124162;1105;104192;-65
2021/03/03 01:39:25;;;;;;;70.05;33.45;;;;;;;4.12;62.48;100434.48;125499;1104;104035;-66
2021/03/03 01:41:52;;;;;;;66.83;31.97;;;;;;;4.09;62.38;100439.83;124329;1105;104319;-66
2021/03/03 01:44:19;;;;;;;66.83;33.23;;;;;;;4.07;62.14;100433.73;124213;1105;104265;-65
2021/03/03 01:46:48;;;;;;;67.97;32.47;;;;;;;4.04;62.31;100430.31;124234;1105;104158;-65
2021/03/03 01:49:16;;;;;;;65.90;32.10;;;;;;;4.00;62.86;100427.75;124163;1106;104172;-66
2021/03/03 01:51:43;;;;;;;66.05;31.90;;;;;;;3.97;62.21;100425.19;124238;1105;104309;-66
2021/03/03 01:54:11;;;;;;;72.17;34.00;;;;;;;3.97;62.47;100424.31;124136;1105;104185;-66
2021/03/03 01:56:40;;;;;;;64.03;29.80;;;;;;;3.94;62.19;100433.16;124210;1105;104239;-66
2021/03/03 01:59:09;;;;;;;70.27;34.17;;;;;;;3.92;62.59;100424.43;124113;1105;104179;-66
2021/03/03 02:01:36;;;;;;;62.63;32.03;;;;;;;3.87;62.93;100427.15;124189;1105;104268;-65
2021/03/03 02:04:04;;;;;;;65.10;32.40;;;;;;;3.83;62.31;100429.90;124099;1105;104255;-66
2021/03/03 02:06:38;;;;;;;59.73;29.93;;;;;;;3.82;62.24;100430.80;125235;1105;102141;-67
2021/03/03 02:09:07;;;;;;;65.90;30.80;;;;;;;3.80;62.73;100433.48;124078;1105;104242;-67
2021/03/03 02:11:42;;;;;;;70.20;33.23;;;;;;;3.78;62.33;100421.23;126273;1105;102047;-66
2021/03/03 02:14:22;;;;;;;67.17;30.77;;;;;;;3.77;62.35;100419.51;124686;1105;104692;-67
2021/03/03 02:16:53;;;;;;;64.05;31.45;;;;;;;3.72;62.35;100420.47;124269;1105;104175;-66
2021/03/03 02:19:28;;;;;;;57.77;27.03;;;;;;;3.69;62.75;100422.33;124143;1105;104779;-66
2021/03/03 02:22:44;;;;;;;67.33;32.00;;;;;;;3.61;62.84;100414.61;124292;1105;104182;-66
2021/03/03 02:25:32;;;;;;;64.67;30.30;;;;;;;3.56;62.93;100413.84;124187;1105;104254;-67
2021/03/03 02:28:02;;;;;;;65.30;30.33;;;;;;;3.58;62.96;100412.05;124134;1105;104303;-67
2021/03/03 02:30:31;;;;;;;61.53;30.50;;;;;;;3.58;62.90;100404.16;124727;1105;104270;-66
2021/03/03 02:33:01;;;;;;;67.07;32.03;;;;;;;3.59;62.68;100400.63;124328;1104;104158;-67
2021/03/03 02:35:31;;;;;;;66.90;32.10;;;;;;;3.60;62.28;100397.09;124173;1105;104195;-67
2021/03/03 02:38:00;;;;;;;65.40;30.80;;;;;;;3.56;62.63;100396.28;124166;1105;104209;-67
2021/03/03 02:40:30;;;;;;;64.27;33.60;;;;;;;3.56;62.62;100393.65;124153;1105;104286;-69
2021/03/03 02:43:00;;;;;;;66.73;33.37;;;;;;;3.58;62.96;100393.63;124201;1105;104207;-67
2021/03/03 02:45:29;;;;;;;69.53;33.27;;;;;;;3.60;63.15;100390.95;124218;1106;104159;-66
2021/03/03 02:47:59;;;;;;;65.47;32.30;;;;;;;3.59;62.53;100384.84;124278;1105;104259;-66
2021/03/03 02:50:26;;;;;;;67.27;34.03;;;;;;;3.58;63.07;100391.00;124191;1105;104187;-67
2021/03/03 02:52:57;;;;;;;67.17;32.77;;;;;;;3.57;63.13;100392.75;125423;1105;104658;-67
2021/03/03 02:55:26;;;;;;;67.80;32.33;;;;;;;3.53;62.87;100387.60;124148;1105;104325;-66
2021/03/03 02:57:55;;;;;;;66.10;33.37;;;;;;;3.46;62.34;100389.52;124117;1105;104243;-66
2021/03/03 03:00:35;;;;;;;64.63;31.53;;;;;;;3.41;63.18;100391.38;124419;1105;104191;-66
2021/03/03 03:03:11;;;;;;;68.13;31.70;;;;;;;3.36;63.14;100391.45;124267;1105;104181;-66
2021/03/03 03:05:44;;;;;;;69.50;34.10;;;;;;;3.30;62.76;100388.95;125482;1105;104252;-67
2021/03/03 03:08:17;;;;;;;73.42;35.30;;;;;;;3.25;63.21;100390.84;124121;1105;104160;-66
2021/03/03 03:10:46;;;;;;;70.90;34.30;;;;;;;3.17;62.82;100387.50;124300;1105;104181;-65
2021/03/03 03:13:19;;;;;;;77.30;38.45;;;;;;;3.02;63.23;100391.32;124168;1105;104267;-66
2021/03/03 03:15:50;;;;;;;77.90;40.83;;;;;;;2.86;62.44;100393.36;124239;1105;104185;-66
2021/03/03 03:18:24;;;;;;;85.13;41.03;;;;;;;2.76;62.48;100390.94;124177;1105;104264;-67
2021/03/03 03:20:54;;;;;;;100.85;46.40;;;;;;;2.33;62.19;100389.09;124189;1105;104181;-66
2021/03/03 03:23:23;;;;;;;99.63;46.20;;;;;;;2.06;62.21;100392.16;124058;1105;104264;-65
2021/03/03 03:25:54;;;;;;;109.07;50.23;;;;;;;1.86;62.91;100381.09;124191;1105;104181;-67
2021/03/03 03:28:24;;;;;;;107.83;54.53;;;;;;;1.74;62.56;100385.67;124238;1105;104267;-67
2021/03/03 03:30:53;;;;;;;97.50;48.37;;;;;;;1.71;62.61;100384.83;124181;1105;104667;-67
2021/03/03 03:33:23;;;;;;;112.83;52.17;;;;;;;1.71;62.84;100383.09;124087;1105;104357;-67
2021/03/03 03:35:52;;;;;;;100.73;47.80;;;;;;;1.71;62.86;100379.58;124142;1105;104277;-67
2021/03/03 03:38:19;;;;;;;110.10;53.47;;;;;;;1.68;62.91;100375.27;124270;1105;104293;-67
2021/03/03 03:40:48;;;;;;;106.22;52.90;;;;;;;1.64;63.05;100381.44;124179;1105;104179;-67
2021/03/03 03:43:18;;;;;;;102.43;50.97;;;;;;;1.62;62.58;100378.86;124156;1105;104175;-67
2021/03/03 03:45:48;;;;;;;100.60;49.03;;;;;;;1.60;62.74;100375.39;124243;1105;104274;-67
2021/03/03 03:48:17;;;;;;;98.50;48.07;;;;;;;1.60;63.11;100379.75;124191;1105;104188;-66
2021/03/03 03:50:45;;;;;;;102.67;48.83;;;;;;;1.57;62.65;100375.43;124421;1105;104213;-66
2021/03/03 03:53:15;;;;;;;103.37;47.30;;;;;;;1.55;63.03;100379.83;124161;1105;104258;-66
2021/03/03 03:55:42;;;;;;;98.93;47.90;;;;;;;1.51;63.44;100374.62;124202;1105;104278;-67
2021/03/03 03:58:14;;;;;;;100.07;49.13;;;;;;;1.48;62.97;100379.03;124273;1105;104392;-67
2021/03/03 04:00:41;;;;;;;93.93;45.43;;;;;;;1.44;63.33;100381.73;124158;1105;104252;-68
2021/03/03 04:03:09;;;;;;;98.60;46.73;;;;;;;1.40;63.16;100382.66;124137;1105;104253;-67
2021/03/03 04:05:36;;;;;;;91.97;44.07;;;;;;;1.36;63.46;100373.09;124062;1105;104271;-66
2021/03/03 04:08:06;;;;;;;91.12;44.63;;;;;;;1.33;63.05;100379.27;124304;1106;104162;-66
2021/03/03 04:10:33;;;;;;;93.47;43.83;;;;;;;1.30;63.36;100367.05;124136;1105;104287;-66
2021/03/03 04:12:59;;;;;;;91.57;42.65;;;;;;;1.28;62.96;100366.20;124056;1106;104165;-66
2021/03/03 04:15:27;;;;;;;94.93;43.90;;;;;;;1.26;63.12;100365.35;124120;1105;104204;-66
2021/03/03 04:17:57;;;;;;;85.33;41.40;;;;;;;1.26;63.76;100374.98;124194;1105;104227;-66
2021/03/03 04:20:26;;;;;;;87.43;43.37;;;;;;;1.23;63.03;100365.39;124810;1105;104185;-66
2021/03/03 04:22:53;;;;;;;90.33;43.43;;;;;;;1.21;62.80;100368.93;123875;1105;104418;-66
2021/03/03 04:25:20;;;;;;;89.97;42.53;;;;;;;1.18;63.06;100361.99;124179;1105;104237;-67
2021/03/03 04:27:47;;;;;;;83.80;40.70;;;;;;;1.16;63.12;100371.63;124189;1106;104241;-67
2021/03/03 04:30:19;;;;;;;80.00;39.73;;;;;;;1.12;63.27;100370.78;124181;1105;104210;-66
2021/03/03 04:33:09;;;;;;;89.73;40.83;;;;;;;1.08;63.27;100368.23;124011;1105;104307;-65
2021/03/03 04:35:36;;;;;;;82.30;39.23;;;;;;;1.03;63.08;100361.29;124191;1106;104309;-65
2021/03/03 04:38:04;;;;;;;83.05;38.63;;;;;;;0.99;63.21;100361.36;124030;1105;104287;-66
2021/03/03 04:40:32;;;;;;;79.60;40.57;;;;;;;0.97;62.97;100361.36;124024;1105;104230;-66
2021/03/03 04:42:59;;;;;;;84.87;38.50;;;;;;;0.96;62.97;100364.02;123971;1105;104191;-66
2021/03/03 04:45:26;;;;;;;82.27;38.97;;;;;;;0.92;63.14;100357.93;126173;1105;102086;-67
2021/03/03 04:47:54;;;;;;;80.33;37.40;;;;;;;0.94;63.58;100363.17;126001;1105;101965;-65
2021/03/03 04:50:22;;;;;;;90.17;44.43;;;;;;;0.94;63.16;100356.16;126246;1105;101798;-66
2021/03/03 04:52:48;;;;;;;79.42;38.48;;;;;;;0.96;63.66;100358.78;124946;1104;103835;-67
2021/03/03 04:55:15;;;;;;;86.20;39.77;;;;;;;0.95;63.75;100357.05;124261;1105;104259;-66
2021/03/03 04:57:42;;;;;;;81.63;40.33;;;;;;;0.95;63.59;100357.05;123994;1105;104317;-66
2021/03/03 05:00:10;;;;;;;83.97;41.47;;;;;;;0.93;63.50;100351.80;123972;1105;104220;-66
2021/03/03 05:02:37;;;;;;;92.23;42.43;;;;;;;0.93;63.31;100354.42;124577;1105;104184;-66
2021/03/03 05:05:05;;;;;;;88.83;43.13;;;;;;;0.90;63.80;100354.45;124107;1105;104182;-66
2021/03/03 05:07:32;;;;;;;90.47;46.77;;;;;;;0.89;63.43;100360.59;124745;1105;104313;-66
2021/03/03 05:09:59;;;;;;;114.40;53.75;;;;;;;0.85;63.48;100362.39;124084;1106;104391;-66
2021/03/03 05:12:27;;;;;;;94.33;48.30;;;;;;;0.84;63.22;100365.01;124078;1105;104258;-67
2021/03/03 05:14:54;;;;;;;88.37;42.87;;;;;;;0.80;63.35;100361.57;124342;1105;104771;-67
2021/03/03 05:17:21;;;;;;;92.53;42.73;;;;;;;0.80;63.76;100358.09;124017;1105;104162;-67
2021/03/03 05:19:48;;;;;;;89.67;43.17;;;;;;;0.79;63.70;100361.60;124077;1105;104262;-66
2021/03/03 05:22:15;;;;;;;88.43;41.40;;;;;;;0.74;63.71;100359.90;124073;1105;104265;-66
2021/03/03 05:24:42;;;;;;;100.55;46.98;;;;;;;0.71;63.64;100359.94;124134;1105;104168;-66
2021/03/03 05:27:10;;;;;;;92.27;42.23;;;;;;;0.67;63.43;100355.61;124051;1105;104188;-66
2021/03/03 05:29:37;;;;;;;88.80;43.30;;;;;;;0.65;63.63;100365.23;124070;1105;104278;-66
2021/03/03 05:32:05;;;;;;;87.63;44.90;;;;;;;0.68;64.02;100364.31;124138;1105;104210;-66
2021/03/03 05:34:32;;;;;;;91.63;45.87;;;;;;;0.69;63.53;100360.81;124545;1105;104273;-67
2021/03/03 05:36:59;;;;;;;90.50;45.97;;;;;;;0.70;63.82;100358.20;124081;1105;104264;-68
2021/03/03 05:39:26;;;;;;;100.57;45.60;;;;;;;0.68;63.81;100356.46;124223;1105;104316;-66
2021/03/03 05:41:53;;;;;;;93.83;44.73;;;;;;;0.67;63.85;100352.99;124084;1105;104261;-66
2021/03/03 05:44:21;;;;;;;98.27;50.65;;;;;;;0.68;63.87;100354.73;124008;1105;104271;-67
2021/03/03 05:46:48;;;;;;;107.67;50.53;;;;;;;0.68;63.94;100356.46;124403;1105;104262;-67
2021/03/03 05:49:19;;;;;;;89.67;46.13;;;;;;;0.70;64.21;100367.79;124597;1105;104232;-66
2021/03/03 05:51:46;;;;;;;98.30;44.93;;;;;;;0.73;63.67;100360.78;124107;1105;104155;-67
2021/03/03 05:54:14;;;;;;;96.17;46.83;;;;;;;0.77;63.90;100360.75;124154;1105;104165;-66
2021/03/03 05:56:44;;;;;;;87.80;44.23;;;;;;;0.73;63.68;100358.16;124114;1105;104299;-66
2021/03/03 05:59:11;;;;;;;87.10;46.33;;;;;;;0.68;64.16;100359.08;124061;1105;104242;-68
2021/03/03 06:01:39;;;;;;;97.03;47.47;;;;;;;0.68;63.92;100364.31;124311;1105;104249;-67
2021/03/03 06:04:20;;;;;;;96.73;46.20;;;;;;;0.65;64.04;100362.62;124095;1105;104309;-67
2021/03/03 06:06:47;;;;;;;100.97;51.83;;;;;;;0.67;64.32;100365.20;123899;1105;104165;-67
2021/03/03 06:09:14;;;;;;;102.60;50.20;;;;;;;0.69;64.31;100363.44;123680;1105;104295;-68
2021/03/03 06:11:42;;;;;;;110.37;54.43;;;;;;;0.61;64.20;100366.15;123912;1105;104246;-67
2021/03/03 06:14:09;;;;;;;125.47;63.60;;;;;;;0.55;64.22;100359.23;123901;1106;104213;-66
2021/03/03 06:16:36;;;;;;;125.25;63.02;;;;;;;0.59;64.63;100365.30;124014;1105;104301;-67
2021/03/03 06:19:03;;;;;;;108.63;52.87;;;;;;;0.62;64.43;100365.27;124225;1105;104223;-67
2021/03/03 06:21:32;;;;;;;106.57;55.20;;;;;;;0.66;64.80;100363.47;124210;1105;104175;-68
2021/03/03 06:24:04;;;;;;;100.37;50.20;;;;;;;0.65;64.73;100362.62;124237;1105;104210;-66
2021/03/03 06:26:32;;;;;;;102.97;50.50;;;;;;;0.73;65.02;100358.16;124206;1105;104201;-67
2021/03/03 06:29:00;;;;;;;97.10;48.27;;;;;;;0.81;64.65;100358.06;124305;1105;104174;-66
2021/03/03 06:31:37;;;;;;;101.67;53.90;;;;;;;0.86;64.95;100355.37;124302;1105;104319;-66
2021/03/03 06:34:11;;;;;;;101.33;49.40;;;;;;;0.97;65.15;100352.66;124224;1105;104335;-66
2021/03/03 06:36:44;;;;;;;100.23;49.17;;;;;;;1.07;64.81;100353.39;124236;1105;104274;-65
2021/03/03 06:39:24;;;;;;;98.93;48.23;;;;;;;1.11;64.93;100352.47;124093;1105;104407;-65
2021/03/03 06:42:23;;;;;;;93.10;49.07;;;;;;;1.16;65.02;100350.66;124233;1105;104158;-65
2021/03/03 06:44:52;;;;;;;79.20;42.63;;;;;;;1.21;65.17;100351.47;124250;1105;104255;-66
2021/03/03 06:47:20;;;;;;;97.93;47.90;;;;;;;1.16;64.93;100345.42;124246;1105;104527;-65
2021/03/03 06:49:50;;;;;;;94.03;47.87;;;;;;;1.19;65.39;100345.37;124185;1105;104256;-66
2021/03/03 06:52:37;;;;;;;94.33;50.77;;;;;;;1.27;65.04;100342.64;124241;1105;104300;-65
2021/03/03 06:55:05;;;;;;;99.73;53.30;;;;;;;1.36;65.25;100346.88;124231;1105;104262;-67
2021/03/03 06:57:32;;;;;;;90.03;47.50;;;;;;;1.44;65.74;100345.87;124263;1105;104639;-66
2021/03/03 06:59:59;;;;;;;94.93;51.40;;;;;;;1.55;65.48;100337.87;124210;1104;104329;-67
2021/03/03 07:02:33;;;;;;;100.03;53.10;;;;;;;1.67;65.65;100344.67;124214;1106;104175;-66
2021/03/03 07:05:08;;;;;;;102.20;52.47;;;;;;;1.81;65.68;100346.22;124267;1105;104184;-68
2021/03/03 07:07:36;;;;;;;96.17;51.00;;;;;;;1.94;66.22;100337.23;124242;1105;104194;-66
2021/03/03 07:10:04;;;;;;;89.80;50.37;;;;;;;2.07;66.06;100333.52;124216;1105;104185;-66
2021/03/03 07:12:33;;;;;;;98.90;49.70;;;;;;;2.19;65.72;100339.46;124021;1106;104188;-65
2021/03/03 07:15:08;;;;;;;93.67;49.60;;;;;;;2.29;65.76;100333.13;124262;1105;104255;-66
2021/03/03 07:17:35;;;;;;;97.37;48.83;;;;;;;2.41;65.96;100333.80;124059;1105;104278;-67
2021/03/03 07:20:08;;;;;;;96.70;46.70;;;;;;;2.53;66.35;100336.20;124214;1105;104165;-67
2021/03/03 07:22:40;;;;;;;95.15;48.60;;;;;;;2.65;66.01;100337.72;124248;1105;104261;-67
2021/03/03 07:25:12;;;;;;;101.10;48.33;;;;;;;2.76;65.63;100338.38;124302;1105;104421;-66
2021/03/03 07:27:41;;;;;;;93.07;49.63;;;;;;;2.87;65.69;100334.64;124189;1105;104169;-66
2021/03/03 07:30:11;;;;;;;98.00;51.40;;;;;;;2.98;65.96;100332.67;124168;1105;104165;-66
2021/03/03 07:32:39;;;;;;;96.27;50.20;;;;;;;3.10;66.00;100331.53;124163;1105;104192;-66
2021/03/03 07:35:26;;;;;;;106.87;55.20;;;;;;;3.23;66.82;100338.27;124194;1105;104214;-67
2021/03/03 07:37:56;;;;;;;102.50;53.90;;;;;;;3.37;66.74;100334.47;124308;1105;104306;-66
2021/03/03 07:40:27;;;;;;;103.77;54.37;;;;;;;3.49;66.55;100333.32;124249;1105;104617;-67
2021/03/03 07:42:58;;;;;;;107.43;54.33;;;;;;;3.63;66.63;100325.09;124258;1106;104267;-67
2021/03/03 07:45:43;;;;;;;106.15;54.05;;;;;;;3.75;66.08;100330.08;124307;1105;104264;-66
2021/03/03 07:48:12;;;;;;;116.10;57.80;;;;;;;3.89;66.27;100324.47;124250;1105;104313;-66
2021/03/03 07:50:42;;;;;;;106.43;56.07;;;;;;;4.04;66.62;100332.89;124301;1105;104607;-67
2021/03/03 07:53:10;;;;;;;112.63;59.27;;;;;;;4.16;66.37;100329.92;124187;1105;104184;-67
2021/03/03 07:55:40;;;;;;;103.10;53.53;;;;;;;4.30;66.57;100329.55;124204;1105;104239;-68
2021/03/03 07:58:09;;;;;;;87.87;46.57;;;;;;;4.43;66.49;100336.23;124219;1105;104638;-67
2021/03/03 08:00:40;;;;;;;106.10;55.03;;;;;;;4.56;66.69;100334.12;124036;1106;104245;-68
2021/03/03 08:03:09;;;;;;;105.57;54.33;;;;;;;4.70;66.59;100338.16;124321;1105;104338;-67
2021/03/03 08:05:53;;;;;;;96.33;51.50;;;;;;;4.82;66.71;100340.45;123978;1105;104287;-66
2021/03/03 08:08:23;;;;;;;102.33;53.23;;;;;;;4.93;66.37;100332.23;124231;1105;104172;-67
2021/03/03 08:10:58;;;;;;;103.30;52.83;;;;;;;5.04;66.45;100324.87;124220;1105;104245;-67
2021/03/03 08:13:28;;;;;;;96.40;51.60;;;;;;;5.14;66.86;100327.21;124240;1105;104158;-66
2021/03/03 08:16:03;;;;;;;100.67;51.97;;;;;;;5.24;66.86;100318.13;124231;1105;104178;-68
2021/03/03 08:18:32;;;;;;;91.80;49.57;;;;;;;5.36;66.74;100316.88;124061;1105;104249;-66
2021/03/03 08:21:23;;;;;;;88.53;46.03;;;;;;;5.46;66.87;100315.67;124176;1105;104188;-66
2021/03/03 08:23:59;;;;;;;86.00;47.03;;;;;;;5.57;66.99;100307.41;124244;1105;104382;-67
2021/03/03 08:26:29;;;;;;;96.17;49.63;;;;;;;5.68;66.94;100309.73;124288;1105;104338;-66
2021/03/03 08:29:26;;;;;;;93.43;49.17;;;;;;;5.76;66.75;100309.47;124253;1105;104255;-68
2021/03/03 08:32:24;;;;;;;91.33;48.10;;;;;;;5.86;66.64;100310.89;124119;1105;104239;-68
2021/03/03 08:34:54;;;;;;;87.07;44.60;;;;;;;6.03;66.86;100302.44;124268;1105;104236;-68
2021/03/03 08:37:31;;;;;;;87.25;43.75;;;;;;;6.16;66.49;100301.99;124193;1105;104270;-69
2021/03/03 08:39:58;;;;;;;;;;;;;;;6.27;66.42;100301.64;124293;1105;104238;-69
2021/03/03 08:42:33;;;;;;;93.90;47.80;;;;;;;6.35;66.96;100295.16;124248;1105;104361;-69
2021/03/03 08:45:08;;;;;;;89.63;45.43;;;;;;;6.45;67.08;100308.90;124182;1105;104227;-68
2021/03/03 08:47:53;;;;;;;88.23;47.67;;;;;;;6.55;66.64;100302.38;124243;1105;104229;-67
2021/03/03 08:50:39;;;;;;;89.20;44.87;;;;;;;6.70;66.38;100300.94;124249;1106;104185;-69
2021/03/03 08:53:19;;;;;;;86.83;45.13;;;;;;;6.95;66.64;100296.52;124282;1105;104152;-69
2021/03/03 08:55:47;;;;;;;84.30;45.60;;;;;;;7.51;66.86;100295.22;124276;1105;104354;-68
2021/03/03 08:58:32;;;;;;;85.73;44.67;;;;;;;8.06;66.20;100293.86;124170;1106;104266;-68
2021/03/03 09:01:02;;;;;;;78.23;43.33;;;;;;;8.70;66.38;100288.47;124117;1105;104178;-68
2021/03/03 09:03:30;;;;;;;83.63;44.33;;;;;;;9.32;65.94;100288.25;124215;1105;104152;-68
2021/03/03 09:05:58;;;;;;;78.10;44.57;;;;;;;9.90;65.76;100281.86;124224;1105;104177;-70
2021/03/03 09:08:26;;;;;;;81.33;44.70;;;;;;;10.45;66.00;100279.98;124227;1105;104306;-69
2021/03/03 09:10:54;;;;;;;80.32;44.42;;;;;;;10.93;65.88;100276.56;124182;1106;104222;-68
2021/03/03 09:13:29;;;;;;;68.03;39.60;;;;;;;11.34;66.40;100270.73;124178;1105;104258;-70
2021/03/03 09:16:11;;;;;;;78.70;43.40;;;;;;;11.74;66.08;100273.77;124239;1105;104169;-69
2021/03/03 09:18:38;;;;;;;72.97;43.47;;;;;;;12.08;65.74;100267.41;123944;1105;104267;-68
2021/03/03 09:21:12;;;;;;;76.63;44.27;;;;;;;12.34;66.26;100258.68;124210;1105;104262;-69
2021/03/03 09:23:40;;;;;;;68.73;42.10;;;;;;;12.55;65.42;100263.67;124219;1105;104261;-69
2021/03/03 09:26:22;;;;;;;73.33;43.50;;;;;;;12.80;65.76;100252.31;124241;1105;104150;-68
2021/03/03 09:28:49;;;;;;;70.63;43.60;;;;;;;13.08;65.64;100260.35;124156;1105;104184;-69
2021/03/03 09:31:38;;;;;;;76.47;45.63;;;;;;;13.36;65.94;100259.42;124253;1105;104256;-68
2021/03/03 09:34:07;;;;;;;75.83;46.33;;;;;;;13.54;65.67;100261.89;124138;1105;104248;-66
2021/03/03 09:37:01;;;;;;;74.63;45.07;;;;;;;13.74;65.76;100262.36;124188;1105;104223;-68
2021/03/03 09:39:30;;;;;;;66.53;41.90;;;;;;;13.96;65.71;100259.09;124141;1105;104631;-70
2021/03/03 09:42:05;;;;;;;70.25;42.80;;;;;;;14.16;65.60;100264.92;124170;1105;104182;-68
2021/03/03 09:44:49;;;;;;;68.57;42.90;;;;;;;14.41;65.45;100259.57;123974;1105;104287;-68
2021/03/03 09:47:23;;;;;;;72.37;44.20;;;;;;;14.74;65.00;100249.30;124232;1105;104669;-68
2021/03/03 09:49:51;;;;;;;68.07;42.67;;;;;;;15.03;64.99;100254.37;124221;1105;104257;-68
2021/03/03 09:52:19;;;;;;;70.77;44.30;;;;;;;15.25;64.72;100248.30;123948;1105;104326;-68
2021/03/03 09:54:47;;;;;;;67.63;42.13;;;;;;;15.33;64.44;100248.60;124204;1105;104299;-68
2021/03/03 09:57:23;;;;;;;67.80;42.73;;;;;;;15.36;64.69;100246.66;124137;1105;104178;-69
2021/03/03 09:59:58;;;;;;;72.77;45.30;;;;;;;15.45;64.91;100241.47;124144;1105;104265;-69
2021/03/03 10:02:28;;;;;;;71.97;43.63;;;;;;;15.54;64.88;100247.95;124109;1105;104197;-69
2021/03/03 10:04:59;;;;;;;67.37;41.30;;;;;;;15.59;64.37;100244.95;124351;1105;104613;-68
2021/03/03 10:07:28;;;;;;;63.37;41.17;;;;;;;15.51;64.20;100240.14;124206;1105;104258;-67
2021/03/03 10:10:03;;;;;;;61.20;40.40;;;;;;;15.43;63.67;100235.36;124184;1105;104252;-68
2021/03/03 10:12:37;;;;;;;66.60;43.13;;;;;;;15.35;64.84;100244.95;124203;1105;104478;-71
2021/03/03 10:15:21;;;;;;;65.83;43.10;;;;;;;15.54;64.95;100231.87;123837;1109;104255;-70
2021/03/03 10:17:54;;;;;;;64.17;39.57;;;;;;;15.70;63.71;100231.56;123749;1105;104281;-68
2021/03/03 10:20:32;;;;;;;60.17;37.63;;;;;;;15.69;63.85;100221.80;124150;1105;104326;-67
2021/03/03 10:23:05;;;;;;;69.35;41.65;;;;;;;15.55;63.67;100216.66;124157;1105;104223;-67
2021/03/03 10:25:32;;;;;;;;;;;;;;;15.42;63.01;100219.41;124197;1105;104644;-67
2021/03/03 10:28:16;;;;;;;64.60;40.40;;;;;;;15.38;63.15;100221.44;124128;1105;104328;-65
2021/03/03 10:30:45;;;;;;;62.20;36.23;;;;;;;15.33;63.31;100213.75;124150;1105;104275;-66
2021/03/03 10:33:31;;;;;;;62.73;37.50;;;;;;;15.30;63.18;100211.30;124149;1105;104280;-69
2021/03/03 10:36:08;;;;;;;54.73;33.50;;;;;;;15.13;62.94;100200.96;124000;1105;104267;-68
2021/03/03 10:38:44;;;;;;;55.17;33.47;;;;;;;15.10;63.30;100202.05;124169;1105;104270;-67
2021/03/03 10:41:25;;;;;;;58.70;37.73;;;;;;;15.12;62.97;100197.44;123831;1105;104254;-67
2021/03/03 10:43:54;;;;;;;60.40;35.83;;;;;;;15.16;62.73;100188.20;124266;1105;104249;-66
2021/03/03 10:46:24;;;;;;;55.73;33.90;;;;;;;15.15;62.94;100191.86;123805;1105;104257;-68
2021/03/03 10:48:55;;;;;;;52.40;30.30;;;;;;;14.99;62.27;100186.78;123922;1106;104216;-67
2021/03/03 10:51:37;;;;;;;49.95;29.95;;;;;;;14.74;62.60;100179.67;124179;1105;104286;-67
2021/03/03 10:54:06;;;;;;;49.03;28.10;;;;;;;14.48;62.15;100181.52;124278;1105;104172;-67
2021/03/03 10:56:41;;;;;;;47.63;28.77;;;;;;;14.25;61.88;100171.47;123935;1106;104262;-68
2021/03/03 10:59:28;;;;;;;51.83;29.87;;;;;;;14.16;62.22;100168.59;124196;1106;104169;-67
2021/03/03 11:02:01;;;;;;;51.47;29.90;;;;;;;14.03;61.53;100172.13;124210;1105;104661;-67
2021/03/03 11:04:45;;;;;;;49.35;29.63;;;;;;;13.75;61.38;100166.02;124001;1105;104240;-66
2021/03/03 11:07:15;;;;;;;58.65;31.48;;;;;;;13.58;61.60;100152.94;124224;1106;104261;-66
2021/03/03 11:09:51;;;;;;;49.77;27.47;;;;;;;13.59;61.69;100157.31;124204;1105;104651;-67
2021/03/03 11:12:27;;;;;;;45.37;23.27;;;;;;;13.44;61.37;100152.08;124218;1105;104201;-67
2021/03/03 11:14:55;;;;;;;50.27;28.43;;;;;;;13.30;61.45;100152.10;124236;1105;104339;-68
2021/03/03 11:17:21;;;;;;;53.75;30.55;;;;;;;13.24;61.41;100148.87;124179;1105;104313;-63